createdAt,value
2023-05-20T00:02:37.466Z,21.67
2023-05-20T00:07:43.265Z,22.13
2023-05-20T00:12:54.099Z,20.60
2023-05-20T00:18:02.647Z,22.37
2023-05-20T00:23:08.550Z,21.33
2023-05-20T00:28:18.002Z,22.73
2023-05-20T00:33:24.407Z,23.33
2023-05-20T00:38:32.962Z,22.50
2023-05-20T00:43:43.158Z,22.60
2023-05-20T00:48:53.276Z,21.07
2023-05-20T00:53:59.764Z,20.53
2023-05-20T00:59:09.602Z,21.17
2023-05-20T01:04:16.105Z,21.13
2023-05-20T01:09:25.341Z,20.47
2023-05-20T01:14:40.150Z,20.43
2023-05-20T01:19:47.275Z,19.03
2023-05-20T01:24:58.211Z,20.43
2023-05-20T01:30:05.335Z,19.03
2023-05-20T01:35:13.245Z,20.20
2023-05-20T01:40:28.522Z,18.77
2023-05-20T01:51:14.734Z,20.17
2023-05-20T02:45:52.188Z,18.00
2023-05-20T03:13:32.471Z,20.23
2023-05-20T03:18:38.834Z,20.50
2023-05-20T03:23:46.796Z,21.77
2023-05-20T03:34:28.431Z,21.40
2023-05-20T03:39:34.182Z,20.17
2023-05-20T03:44:42.794Z,20.93
2023-05-20T03:49:51.831Z,20.93
2023-05-20T03:54:58.378Z,20.67
2023-05-20T04:00:17.221Z,21.00
2023-05-20T04:05:33.088Z,21.37
2023-05-20T04:10:41.518Z,22.13
2023-05-20T04:15:47.619Z,22.83
2023-05-20T04:21:00.405Z,22.37
2023-05-20T04:26:06.829Z,23.70
2023-05-20T04:31:13.894Z,23.60
2023-05-20T04:36:28.956Z,24.40
2023-05-20T04:41:36.353Z,23.47
2023-05-20T04:46:42.625Z,23.57
2023-05-20T04:51:52.475Z,23.10
2023-05-20T04:56:57.985Z,22.57
2023-05-20T05:02:03.850Z,25.80
2023-05-20T05:13:17.758Z,26.50
2023-05-20T05:18:47.220Z,28.03
2023-05-20T05:23:58.209Z,27.73
2023-05-20T05:35:18.181Z,27.53
2023-05-20T05:40:44.399Z,27.53
2023-05-20T05:46:01.496Z,25.67
2023-05-20T05:51:08.525Z,28.73
2023-05-20T05:56:45.078Z,30.60
2023-05-20T06:07:34.184Z,31.47
2023-05-20T06:12:44.571Z,27.57
2023-05-20T06:17:53.704Z,28.03
2023-05-20T06:22:59.713Z,28.23
2023-05-20T06:28:15.829Z,27.57
2023-05-20T06:33:22.865Z,26.47
2023-05-20T06:38:32.404Z,26.57
2023-05-20T06:44:51.504Z,26.70
2023-05-20T06:50:20.367Z,24.87
2023-05-20T06:55:26.686Z,27.13
2023-05-20T07:00:36.026Z,27.37
2023-05-20T07:05:42.160Z,28.20
2023-05-20T07:10:51.980Z,26.80
2023-05-20T07:16:04.241Z,24.73
2023-05-20T07:21:11.000Z,24.17
2023-05-20T07:26:41.445Z,25.27
2023-05-20T07:37:22.444Z,24.53
2023-05-20T07:42:33.556Z,24.73
2023-05-20T08:23:43.400Z,22.07
2023-05-20T08:28:52.464Z,22.67
2023-05-20T08:33:59.937Z,22.10
2023-05-20T08:52:33.217Z,20.33
2023-05-20T09:03:56.722Z,21.40
2023-05-20T09:14:47.727Z,19.60
2023-05-20T09:19:53.918Z,19.57
2023-05-20T09:25:10.330Z,21.07
2023-05-20T09:31:01.053Z,20.67
2023-05-20T09:52:42.757Z,19.20
2023-05-20T09:57:53.591Z,19.10
2023-05-20T10:03:00.109Z,19.87
2023-05-20T10:08:30.423Z,19.10
2023-05-20T10:19:17.731Z,18.17
2023-05-20T10:24:34.511Z,18.50
2023-05-20T10:30:01.236Z,19.23
2023-05-20T10:35:48.065Z,18.30
2023-05-20T10:41:32.409Z,18.87
2023-05-20T10:52:23.623Z,17.23
2023-05-20T10:57:32.712Z,17.17
2023-05-20T11:02:49.415Z,16.57
2023-05-20T11:08:16.967Z,17.90
2023-05-20T11:13:32.240Z,18.23
2023-05-20T11:18:40.416Z,16.70
2023-05-20T11:29:43.398Z,15.97
2023-05-20T11:34:55.597Z,15.27
2023-05-20T11:40:22.758Z,16.23
2023-05-20T12:03:08.328Z,16.77
2023-05-20T12:14:38.471Z,16.27
2023-05-20T13:05:24.208Z,15.80
2023-05-20T13:10:37.567Z,15.73
2023-05-20T13:15:44.008Z,15.20
2023-05-20T13:20:53.072Z,15.43
2023-05-20T13:26:55.723Z,14.27
2023-05-20T13:45:07.828Z,13.07
2023-05-20T14:02:23.386Z,14.83
2023-05-20T14:07:29.738Z,14.10
2023-05-20T14:12:35.269Z,13.97
2023-05-20T14:17:43.117Z,13.87
2023-05-20T14:23:02.939Z,13.83
2023-05-20T14:34:46.145Z,15.07
2023-05-20T14:39:52.271Z,14.23
2023-05-20T14:55:46.027Z,14.70
2023-05-20T15:17:52.561Z,13.93
2023-05-20T15:23:11.747Z,14.83
2023-05-20T15:28:20.054Z,14.13
2023-05-20T15:33:28.737Z,14.93
2023-05-20T16:12:26.153Z,14.30
2023-05-20T16:17:34.020Z,14.93
2023-05-20T16:22:39.932Z,14.73
2023-05-20T16:38:50.181Z,15.77
2023-05-20T16:43:55.598Z,15.67
2023-05-20T16:49:03.269Z,14.03
2023-05-20T16:54:20.149Z,13.70
2023-05-20T16:59:31.662Z,13.10
2023-05-20T17:04:38.094Z,12.37
2023-05-20T17:09:46.591Z,12.37
2023-05-20T17:14:52.231Z,11.83
2023-05-20T17:19:58.389Z,10.50
2023-05-20T17:25:08.791Z,11.40
2023-05-20T17:41:25.421Z,12.80
2023-05-20T17:52:09.991Z,13.13
2023-05-20T18:09:22.551Z,12.97
2023-05-20T18:42:11.676Z,13.37
2023-05-20T18:52:48.195Z,14.80
2023-05-20T19:33:13.003Z,16.00
2023-05-20T19:38:46.336Z,16.53
2023-05-20T19:50:02.304Z,18.73
2023-05-20T20:00:49.838Z,17.60
